createdAt,value
2022-09-06T00:00:52.547Z,0.22
2022-09-06T00:04:15.564Z,0.30
2022-09-06T00:07:38.067Z,0.52
2022-09-06T00:11:01.276Z,0.30
2022-09-06T00:14:23.277Z,0.10
2022-09-06T00:17:45.105Z,0.50
2022-09-06T00:21:35.593Z,0.57
2022-09-06T00:24:57.472Z,2.47
2022-09-06T00:28:19.660Z,2.97
2022-09-06T00:31:41.531Z,2.45
2022-09-06T00:35:03.603Z,2.80
2022-09-06T00:38:25.557Z,3.03
2022-09-06T00:41:47.823Z,2.70
2022-09-06T00:45:11.547Z,2.35
2022-09-06T00:48:34.295Z,2.20
2022-09-06T00:52:01.200Z,2.45
2022-09-06T00:55:24.485Z,2.00
2022-09-06T00:58:48.767Z,2.30
2022-09-06T01:02:11.301Z,2.75
2022-09-06T01:06:15.405Z,2.55
2022-09-06T01:09:57.931Z,2.85
2022-09-06T01:13:55.622Z,2.47
2022-09-06T01:17:30.369Z,2.60
2022-09-06T01:21:16.664Z,2.50
2022-09-06T01:25:10.178Z,2.60
2022-09-06T01:28:34.458Z,2.80
2022-09-06T01:32:04.562Z,2.35
2022-09-06T01:35:38.588Z,2.67
2022-09-06T01:39:00.259Z,2.50
2022-09-06T01:42:30.048Z,2.40
2022-09-06T01:46:17.586Z,2.92
2022-09-06T01:49:57.526Z,2.15
2022-09-06T01:53:27.401Z,3.75
2022-09-06T01:57:15.822Z,3.15
2022-09-06T02:00:59.978Z,3.40
2022-09-06T02:04:40.712Z,2.90
2022-09-06T02:08:12.820Z,3.13
2022-09-06T02:11:41.915Z,2.85
2022-09-06T02:15:10.225Z,3.10
2022-09-06T02:18:35.714Z,2.85
2022-09-06T02:21:58.308Z,3.63
2022-09-06T02:25:29.858Z,3.17
2022-09-06T02:28:51.857Z,2.67
2022-09-06T02:32:21.825Z,3.25
2022-09-06T02:35:54.884Z,2.83
2022-09-06T02:39:16.914Z,3.20
2022-09-06T02:42:39.839Z,2.67
2022-09-06T02:46:01.907Z,3.00
2022-09-06T02:49:23.843Z,2.95
2022-09-06T02:52:45.560Z,3.03
2022-09-06T02:56:07.578Z,3.00
2022-09-06T02:59:29.339Z,3.05
2022-09-06T03:02:51.176Z,3.13
2022-09-06T03:06:12.968Z,3.20
2022-09-06T03:09:35.044Z,3.47
2022-09-06T03:12:56.876Z,3.38
2022-09-06T03:16:19.221Z,3.25
2022-09-06T03:19:41.148Z,3.10
2022-09-06T03:23:03.247Z,3.15
2022-09-06T03:26:25.301Z,3.25
2022-09-06T03:29:47.061Z,3.40
2022-09-06T03:33:08.784Z,3.35
2022-09-06T03:36:30.623Z,3.47
2022-09-06T03:39:52.482Z,2.75
2022-09-06T03:43:15.014Z,3.33
2022-09-06T03:46:37.347Z,3.47
2022-09-06T03:49:59.085Z,3.33
2022-09-06T03:53:21.967Z,4.35
2022-09-06T03:56:43.825Z,4.47
2022-09-06T04:00:06.285Z,4.45
2022-09-06T04:03:33.733Z,4.72
2022-09-06T04:06:55.480Z,4.63
2022-09-06T04:10:17.476Z,4.82
2022-09-06T04:13:39.225Z,4.68
2022-09-06T04:17:01.012Z,4.38
2022-09-06T04:20:22.794Z,4.97
2022-09-06T04:23:44.582Z,4.40
2022-09-06T04:27:06.342Z,4.22
2022-09-06T04:30:28.181Z,4.35
2022-09-06T04:33:49.822Z,4.97
2022-09-06T04:37:11.616Z,4.20
2022-09-06T04:40:33.446Z,4.00
2022-09-06T04:43:55.268Z,4.13
2022-09-06T04:47:19.094Z,3.90
2022-09-06T04:50:40.995Z,3.67
2022-09-06T04:54:02.849Z,4.13
2022-09-06T04:57:24.655Z,4.25
2022-09-06T05:00:47.730Z,4.90
2022-09-06T05:04:09.469Z,4.70
2022-09-06T05:07:31.277Z,4.95
2022-09-06T05:10:53.147Z,5.03
2022-09-06T05:14:14.927Z,5.70
2022-09-06T05:17:36.895Z,5.55
2022-09-06T05:20:59.051Z,6.55
2022-09-06T05:24:20.887Z,6.45
2022-09-06T05:27:42.759Z,6.05
2022-09-06T05:31:08.783Z,4.72
2022-09-06T05:34:30.549Z,4.85
2022-09-06T05:37:52.322Z,5.05
2022-09-06T05:41:14.144Z,5.00
2022-09-06T05:44:37.269Z,5.30
2022-09-06T05:47:59.096Z,5.28
2022-09-06T05:51:21.029Z,8.52
2022-09-06T05:54:42.959Z,10.27
2022-09-06T05:58:04.799Z,11.20
2022-09-06T06:01:28.588Z,11.70
2022-09-06T06:04:51.896Z,12.32
2022-09-06T06:08:13.655Z,11.18
2022-09-06T06:11:35.759Z,9.85
2022-09-06T06:14:57.614Z,9.38
2022-09-06T06:18:20.282Z,10.18
2022-09-06T06:21:43.557Z,9.35
2022-09-06T06:25:05.651Z,9.35
2022-09-06T06:28:27.478Z,8.88
2022-09-06T06:31:49.354Z,9.00
2022-09-06T06:35:11.564Z,8.63
2022-09-06T06:38:35.963Z,8.45
2022-09-06T06:41:57.751Z,7.82
2022-09-06T06:45:26.935Z,8.48
2022-09-06T06:48:54.039Z,8.27
2022-09-06T06:52:16.571Z,7.55
2022-09-06T06:55:39.129Z,7.82
2022-09-06T06:59:02.719Z,7.80
2022-09-06T07:02:24.576Z,8.88
2022-09-06T07:13:13.866Z,7.03
2022-09-06T07:16:35.838Z,7.30
2022-09-06T07:20:13.770Z,6.85
2022-09-06T07:31:00.622Z,7.75
2022-09-06T07:34:22.597Z,7.18
2022-09-06T07:37:51.225Z,7.43
2022-09-06T07:41:13.001Z,7.03
2022-09-06T07:44:34.914Z,6.60
2022-09-06T07:48:00.417Z,5.78
2022-09-06T07:51:23.043Z,6.13
2022-09-06T07:54:44.838Z,7.13
2022-09-06T07:58:06.695Z,5.38
2022-09-06T08:01:33.797Z,5.45
2022-09-06T08:04:56.637Z,4.82
2022-09-06T08:12:06.423Z,5.35
2022-09-06T08:15:29.935Z,4.70
2022-09-06T08:18:57.025Z,4.32
2022-09-06T08:22:18.735Z,4.03
2022-09-06T08:25:40.575Z,4.60
2022-09-06T08:29:06.675Z,4.13
2022-09-06T08:32:28.670Z,4.05
2022-09-06T08:36:00.728Z,4.60
2022-09-06T08:39:22.461Z,4.18
2022-09-06T08:42:44.330Z,4.25
2022-09-06T08:46:09.297Z,4.15
2022-09-06T08:49:34.489Z,4.18
2022-09-06T08:53:17.284Z,3.30
2022-09-06T08:56:56.256Z,3.50
2022-09-06T09:00:20.155Z,3.72
